createdAt,value
2023-01-03T00:00:31.584Z,6.53
2023-01-03T00:03:33.212Z,8.07
2023-01-03T00:06:37.149Z,7.57
2023-01-03T00:09:38.750Z,7.53
2023-01-03T00:12:40.446Z,7.00
2023-01-03T00:15:42.098Z,5.50
2023-01-03T00:18:43.921Z,6.83
2023-01-03T00:21:45.924Z,6.60
2023-01-03T00:24:48.402Z,7.40
2023-01-03T00:27:50.105Z,7.43
2023-01-03T00:30:51.746Z,7.60
2023-01-03T00:33:53.487Z,7.30
2023-01-03T00:36:55.137Z,8.17
2023-01-03T00:39:56.784Z,7.10
2023-01-03T00:43:18.637Z,7.80
2023-01-03T00:46:20.869Z,6.90
2023-01-03T00:49:22.778Z,7.03
2023-01-03T00:52:24.384Z,7.50
2023-01-03T00:55:26.053Z,6.60
2023-01-03T00:58:29.899Z,6.50
2023-01-03T01:01:43.985Z,6.90
2023-01-03T01:04:47.728Z,6.80
2023-01-03T01:07:49.430Z,6.20
2023-01-03T01:11:03.081Z,6.73
2023-01-03T01:14:19.785Z,6.20
2023-01-03T01:17:23.082Z,5.97
2023-01-03T01:20:24.791Z,6.40
2023-01-03T01:23:26.478Z,6.50
2023-01-03T01:26:28.118Z,6.57
2023-01-03T01:29:29.735Z,6.40
2023-01-03T01:32:31.524Z,6.97
2023-01-03T01:35:33.897Z,6.57
2023-01-03T01:38:35.661Z,6.70
2023-01-03T01:41:56.572Z,6.13
2023-01-03T01:44:59.436Z,6.53
2023-01-03T01:48:06.815Z,5.77
2023-01-03T01:51:08.909Z,6.30
2023-01-03T01:54:10.846Z,5.50
2023-01-03T01:57:14.514Z,5.53
2023-01-03T02:00:16.214Z,6.40
2023-01-03T02:03:19.249Z,6.10
2023-01-03T02:06:22.140Z,5.80
2023-01-03T02:09:23.766Z,5.63
2023-01-03T02:12:58.672Z,5.47
2023-01-03T02:16:18.839Z,5.50
2023-01-03T02:19:23.436Z,6.23
2023-01-03T02:22:43.423Z,6.03
2023-01-03T02:25:48.003Z,6.20
2023-01-03T02:28:50.170Z,5.17
2023-01-03T02:32:03.600Z,4.60
2023-01-03T02:35:16.653Z,5.30
2023-01-03T02:38:21.099Z,4.67
2023-01-03T02:41:22.687Z,5.10
2023-01-03T02:44:33.886Z,4.20
2023-01-03T02:47:39.760Z,5.60
2023-01-03T02:50:48.842Z,5.10
2023-01-03T02:53:50.877Z,5.53
2023-01-03T02:56:56.096Z,5.40
2023-01-03T03:00:08.388Z,5.23
2023-01-03T03:03:15.424Z,6.17
2023-01-03T03:06:19.865Z,6.17
2023-01-03T03:09:21.461Z,6.67
2023-01-03T03:12:42.233Z,6.20
2023-01-03T03:15:57.541Z,7.70
2023-01-03T03:19:00.637Z,6.53
2023-01-03T03:22:23.354Z,5.57
2023-01-03T03:25:30.573Z,5.37
2023-01-03T03:28:35.190Z,5.73
2023-01-03T03:31:38.975Z,5.00
2023-01-03T03:34:41.938Z,4.77
2023-01-03T03:37:45.760Z,4.93
2023-01-03T03:41:14.564Z,4.57
2023-01-03T03:45:01.277Z,4.97
2023-01-03T03:48:07.825Z,5.23
2023-01-03T03:51:13.376Z,4.90
2023-01-03T03:54:17.985Z,6.17
2023-01-03T03:57:23.310Z,5.97
2023-01-03T04:00:27.070Z,5.40
2023-01-03T04:03:29.942Z,4.73
2023-01-03T04:06:33.356Z,6.30
2023-01-03T04:09:34.966Z,6.77
2023-01-03T04:12:36.637Z,6.77
2023-01-03T04:15:38.205Z,6.67
2023-01-03T04:18:39.851Z,5.97
2023-01-03T04:21:41.546Z,6.90
2023-01-03T04:24:43.206Z,6.63
2023-01-03T04:27:44.829Z,6.30
2023-01-03T04:30:47.067Z,6.20
2023-01-03T04:33:48.880Z,6.10
2023-01-03T04:36:50.672Z,5.80
2023-01-03T04:39:52.491Z,5.33
2023-01-03T04:43:12.779Z,6.20
2023-01-03T04:46:14.640Z,6.03
2023-01-03T04:49:16.305Z,7.13
2023-01-03T04:52:17.971Z,8.10
2023-01-03T04:55:19.724Z,8.73
2023-01-03T04:58:21.407Z,8.00
2023-01-03T05:01:23.281Z,6.83
2023-01-03T05:04:25.100Z,7.50
2023-01-03T05:07:30.035Z,8.97
2023-01-03T05:10:32.361Z,8.03
2023-01-03T05:13:34.093Z,8.80
2023-01-03T05:16:35.848Z,9.10
2023-01-03T05:19:57.776Z,8.93
2023-01-03T05:23:18.484Z,11.00
2023-01-03T05:26:21.050Z,11.60
2023-01-03T05:29:23.933Z,11.53
2023-01-03T05:32:25.800Z,11.53
2023-01-03T05:35:28.906Z,16.10
2023-01-03T05:38:32.356Z,15.57
2023-01-03T05:41:52.384Z,15.23
2023-01-03T05:44:53.951Z,14.83
2023-01-03T05:47:58.699Z,13.83
2023-01-03T05:51:00.377Z,15.17
2023-01-03T05:54:02.083Z,13.33
2023-01-03T05:57:03.959Z,12.57
2023-01-03T06:00:05.834Z,12.73
2023-01-03T06:03:07.543Z,11.93
2023-01-03T06:06:12.851Z,13.53
2023-01-03T06:09:14.444Z,15.10
2023-01-03T06:12:16.060Z,15.43
2023-01-03T06:15:17.711Z,10.33
2023-01-03T06:18:21.354Z,13.60
2023-01-03T06:21:23.275Z,11.63
2023-01-03T06:24:24.992Z,17.93
2023-01-03T06:27:26.694Z,19.63
2023-01-03T06:30:28.371Z,18.00
2023-01-03T06:33:30.143Z,18.87
2023-01-03T06:36:34.767Z,17.40
2023-01-03T06:39:36.797Z,17.47
2023-01-03T06:42:44.570Z,17.97
2023-01-03T06:46:05.099Z,23.17
2023-01-03T06:49:27.010Z,22.30
2023-01-03T06:52:47.293Z,30.70
2023-01-03T06:55:56.113Z,26.23
2023-01-03T06:58:58.712Z,28.57
2023-01-03T07:02:00.676Z,20.93
2023-01-03T07:05:02.335Z,18.70
2023-01-03T07:08:03.987Z,18.10
2023-01-03T07:11:05.652Z,19.37
2023-01-03T07:14:08.188Z,20.33
2023-01-03T07:17:09.782Z,21.27
2023-01-03T07:20:11.398Z,21.37
2023-01-03T07:23:13.691Z,20.57
2023-01-03T07:26:15.508Z,19.93
2023-01-03T07:29:17.078Z,21.03
2023-01-03T07:32:18.694Z,24.43
2023-01-03T07:35:20.270Z,29.23
2023-01-03T07:38:22.262Z,31.10
2023-01-03T07:41:43.971Z,27.83
2023-01-03T07:44:45.548Z,24.80
2023-01-03T07:47:47.334Z,19.87
2023-01-03T07:50:48.991Z,16.20
2023-01-03T07:53:51.352Z,17.30
2023-01-03T07:56:53.097Z,17.97
2023-01-03T07:59:54.851Z,25.37
2023-01-03T08:02:56.577Z,36.83
2023-01-03T08:06:02.127Z,41.50
2023-01-03T08:09:22.198Z,43.63
2023-01-03T08:12:42.480Z,42.50
2023-01-03T08:15:48.299Z,37.17
2023-01-03T08:18:50.174Z,26.27
2023-01-03T08:21:51.947Z,18.83
2023-01-03T08:24:53.704Z,17.43
2023-01-03T08:27:58.699Z,16.50
2023-01-03T08:31:02.584Z,22.33
2023-01-03T08:34:11.835Z,23.77
2023-01-03T08:37:17.739Z,16.53
2023-01-03T08:40:19.476Z,18.13
2023-01-03T08:43:21.145Z,20.13
2023-01-03T08:46:22.875Z,12.37
2023-01-03T08:49:24.861Z,13.33
2023-01-03T08:52:31.589Z,17.00
2023-01-03T08:55:36.304Z,19.50
2023-01-03T08:58:37.939Z,19.33
2023-01-03T09:01:40.444Z,25.47
2023-01-03T09:04:42.355Z,23.47
2023-01-03T09:07:44.251Z,23.87
2023-01-03T09:10:47.905Z,22.30
2023-01-03T09:13:49.729Z,20.35
2023-01-03T09:16:51.383Z,24.90
2023-01-03T09:19:53.099Z,27.55
2023-01-03T09:22:54.668Z,32.03
2023-01-03T09:25:56.480Z,33.97
2023-01-03T09:28:58.141Z,37.78
2023-01-03T09:32:03.340Z,30.02
2023-01-03T09:35:08.410Z,30.00
2023-01-03T09:38:10.353Z,29.33
2023-01-03T09:41:13.656Z,20.60
2023-01-03T09:44:16.805Z,78.28
2023-01-03T09:47:20.970Z,35.75
2023-01-03T09:50:39.400Z,46.35
2023-01-03T09:54:05.163Z,25.48
2023-01-03T09:57:35.077Z,17.87
2023-01-03T10:00:57.780Z,18.43
2023-01-03T10:04:11.539Z,9.93
2023-01-03T10:07:19.233Z,12.17
2023-01-03T10:10:26.383Z,9.60
2023-01-03T10:13:28.029Z,4.93
2023-01-03T10:16:41.394Z,5.20
2023-01-03T10:20:01.793Z,5.47
2023-01-03T10:23:05.457Z,7.93
2023-01-03T10:26:12.946Z,8.07
2023-01-03T10:29:16.502Z,5.07
2023-01-03T10:32:24.079Z,10.83
2023-01-03T10:35:32.957Z,4.00
2023-01-03T10:38:43.545Z,7.20
2023-01-03T10:41:47.770Z,5.80
2023-01-03T10:45:03.279Z,4.70
2023-01-03T10:48:05.554Z,4.10
2023-01-03T10:51:22.135Z,6.17
2023-01-03T10:54:26.757Z,3.13
2023-01-03T10:57:39.235Z,4.80
2023-01-03T11:00:43.141Z,3.97
2023-01-03T11:03:49.519Z,3.30
2023-01-03T11:06:59.128Z,5.17
2023-01-03T11:10:00.787Z,5.20
2023-01-03T11:13:16.182Z,3.20
2023-01-03T11:16:19.245Z,3.90
2023-01-03T11:19:20.994Z,4.40
2023-01-03T11:22:22.600Z,3.37
2023-01-03T11:25:30.111Z,3.40
2023-01-03T11:28:31.748Z,2.67
2023-01-03T11:31:36.400Z,3.10
2023-01-03T11:35:12.093Z,4.80
2023-01-03T11:38:02.938Z,4.30
2023-01-03T11:41:23.545Z,3.23
2023-01-03T11:44:43.955Z,2.80
2023-01-03T11:47:50.126Z,6.63
2023-01-03T11:51:10.004Z,5.53
2023-01-03T11:54:23.794Z,5.07
2023-01-03T11:57:34.404Z,3.37
2023-01-03T12:00:48.116Z,4.30
2023-01-03T12:03:55.649Z,4.70
2023-01-03T12:07:36.764Z,4.43
2023-01-03T12:10:27.970Z,5.10
2023-01-03T12:13:38.702Z,4.37
2023-01-03T12:16:45.598Z,4.20
2023-01-03T12:19:52.939Z,4.33
2023-01-03T12:23:15.872Z,4.50
2023-01-03T12:26:17.755Z,3.17
2023-01-03T12:29:19.455Z,6.30
2023-01-03T12:32:39.770Z,3.97
2023-01-03T12:35:44.407Z,4.90
2023-01-03T12:38:51.695Z,4.90
2023-01-03T12:42:11.997Z,4.93
2023-01-03T12:45:19.758Z,4.93
2023-01-03T12:48:30.449Z,4.47
2023-01-03T12:51:32.224Z,4.50
2023-01-03T12:54:33.874Z,6.93
2023-01-03T12:57:45.196Z,7.30
2023-01-03T13:01:01.407Z,6.10
2023-01-03T13:04:08.652Z,5.00
2023-01-03T13:07:20.991Z,7.37
2023-01-03T13:10:26.513Z,8.30
2023-01-03T13:13:29.038Z,10.87
2023-01-03T13:16:36.645Z,7.77
2023-01-03T13:19:50.960Z,4.67
2023-01-03T13:22:59.150Z,6.17
2023-01-03T13:26:06.748Z,6.90
2023-01-03T13:29:27.052Z,5.10
2023-01-03T13:32:33.149Z,6.53
2023-01-03T13:35:42.726Z,8.30
2023-01-03T13:38:44.381Z,4.63
2023-01-03T13:41:52.922Z,5.13
2023-01-03T13:45:13.087Z,4.03
2023-01-03T13:48:22.874Z,5.50
2023-01-03T13:51:26.048Z,4.73
2023-01-03T13:54:35.089Z,4.57
2023-01-03T13:57:38.584Z,6.07
2023-01-03T14:00:40.439Z,21.07
2023-01-03T14:03:48.218Z,16.63
2023-01-03T14:07:16.018Z,13.40
2023-01-03T14:10:36.718Z,8.20
2023-01-03T14:13:47.135Z,10.43
2023-01-03T14:16:51.209Z,16.07
2023-01-03T14:19:55.001Z,13.00
2023-01-03T14:23:00.450Z,9.07
2023-01-03T14:26:12.054Z,16.37
2023-01-03T14:29:17.018Z,12.13
2023-01-03T14:32:21.782Z,8.67
2023-01-03T14:35:37.643Z,10.00
2023-01-03T14:38:39.338Z,9.90
2023-01-03T14:41:43.204Z,10.80
2023-01-03T14:44:49.741Z,9.83
2023-01-03T14:47:53.139Z,10.00
2023-01-03T14:50:55.237Z,8.77
2023-01-03T14:53:57.813Z,10.63
2023-01-03T14:57:00.379Z,12.93
2023-01-03T15:00:02.365Z,14.43
2023-01-03T15:03:04.591Z,15.63
2023-01-03T15:06:21.850Z,18.43
2023-01-03T15:09:24.771Z,25.47
2023-01-03T15:12:26.488Z,25.40
2023-01-03T15:15:36.294Z,23.50
2023-01-03T15:18:39.842Z,20.47
2023-01-03T15:21:42.455Z,20.33
2023-01-03T15:24:45.277Z,20.07
2023-01-03T15:27:48.610Z,16.17
2023-01-03T15:30:50.342Z,39.00
2023-01-03T15:34:12.706Z,38.27
2023-01-03T15:37:19.583Z,38.93
2023-01-03T15:40:21.849Z,51.53
2023-01-03T15:43:27.063Z,47.20
2023-01-03T15:46:29.074Z,47.93
2023-01-03T15:49:32.874Z,44.60
2023-01-03T15:52:34.508Z,48.17
2023-01-03T15:55:36.136Z,65.03
2023-01-03T15:58:38.242Z,59.63
2023-01-03T16:01:39.928Z,89.30
2023-01-03T16:04:41.754Z,109.00
2023-01-03T16:07:43.426Z,70.10
2023-01-03T16:10:45.862Z,53.27
2023-01-03T16:13:50.672Z,47.73
2023-01-03T16:16:53.864Z,34.33
2023-01-03T16:19:56.703Z,45.77
2023-01-03T16:23:01.703Z,54.47
2023-01-03T16:26:03.802Z,61.20
2023-01-03T16:29:05.365Z,52.97
2023-01-03T16:32:12.598Z,46.97
2023-01-03T16:35:16.037Z,47.07
2023-01-03T16:38:18.358Z,49.93
2023-01-03T16:41:20.026Z,55.23
2023-01-03T16:44:21.708Z,41.37
2023-01-03T16:47:24.203Z,45.77
2023-01-03T16:50:25.968Z,47.63
2023-01-03T16:53:37.219Z,48.57
2023-01-03T16:56:38.924Z,37.50
2023-01-03T16:59:40.539Z,47.30
2023-01-03T17:02:42.411Z,47.20
2023-01-03T17:05:46.432Z,45.70
2023-01-03T17:08:48.084Z,46.43
2023-01-03T17:11:49.767Z,48.03
2023-01-03T17:14:52.097Z,44.83
2023-01-03T17:17:53.876Z,44.57
2023-01-03T17:20:58.639Z,46.63
2023-01-03T17:24:05.671Z,46.47
2023-01-03T17:27:13.806Z,53.63
2023-01-03T17:30:20.051Z,43.93
2023-01-03T17:33:21.913Z,50.43
2023-01-03T17:36:23.575Z,64.93
2023-01-03T17:39:25.788Z,57.47
2023-01-03T17:42:28.886Z,68.33
2023-01-03T17:45:49.284Z,46.20
2023-01-03T17:49:09.676Z,59.23
2023-01-03T17:52:16.863Z,43.17
2023-01-03T17:55:21.072Z,41.70
2023-01-03T17:58:31.134Z,39.57
2023-01-03T18:01:34.211Z,40.67
2023-01-03T18:05:12.906Z,36.90
2023-01-03T18:07:59.005Z,42.10
2023-01-03T18:11:00.847Z,44.90
2023-01-03T18:14:02.592Z,41.83
2023-01-03T18:17:06.339Z,43.57
2023-01-03T18:20:09.881Z,38.87
2023-01-03T18:23:19.551Z,40.03
2023-01-03T18:26:21.269Z,39.97
2023-01-03T18:29:22.916Z,33.67
2023-01-03T18:32:24.705Z,25.03
2023-01-03T18:35:32.409Z,41.93
2023-01-03T18:38:41.230Z,39.30
2023-01-03T18:41:46.057Z,44.50
2023-01-03T18:44:48.155Z,41.50
2023-01-03T18:47:49.798Z,40.73
2023-01-03T18:50:58.340Z,39.73
2023-01-03T18:54:01.465Z,40.67
2023-01-03T18:57:03.584Z,37.00
2023-01-03T19:00:07.959Z,41.43
2023-01-03T19:03:19.570Z,47.67
2023-01-03T19:06:23.791Z,46.93
2023-01-03T19:09:26.495Z,34.23
2023-01-03T19:12:37.500Z,34.97
2023-01-03T19:15:39.224Z,32.20
2023-01-03T19:18:40.889Z,31.13
2023-01-03T19:21:51.048Z,34.33
2023-01-03T19:24:57.017Z,25.20
2023-01-03T19:28:00.921Z,29.30
2023-01-03T19:31:03.731Z,15.07
2023-01-03T19:34:10.370Z,19.07
2023-01-03T19:37:12.293Z,16.90
2023-01-03T19:40:14.605Z,16.17
2023-01-03T19:43:21.351Z,15.33
2023-01-03T19:46:23.100Z,12.97
2023-01-03T19:49:24.847Z,11.93
2023-01-03T19:52:27.428Z,16.60
2023-01-03T19:55:33.143Z,16.00
2023-01-03T19:58:39.359Z,16.37
2023-01-03T20:02:14.142Z,18.67
2023-01-03T20:05:02.728Z,16.87
2023-01-03T20:08:11.135Z,23.03
2023-01-03T20:11:19.089Z,28.70
2023-01-03T20:14:22.681Z,32.73
2023-01-03T20:17:25.804Z,23.70
2023-01-03T20:20:28.921Z,25.87
2023-01-03T20:23:33.041Z,24.60
2023-01-03T20:26:35.293Z,23.13
2023-01-03T20:29:37.015Z,20.03
2023-01-03T20:32:38.688Z,21.03
2023-01-03T20:39:02.230Z,18.33
2023-01-03T20:42:07.352Z,17.60
2023-01-03T20:45:09.251Z,15.53
2023-01-03T20:48:25.487Z,17.17
2023-01-03T20:51:28.098Z,21.07
2023-01-03T20:54:29.708Z,15.17
2023-01-03T20:57:31.450Z,20.67
2023-01-03T21:00:34.912Z,19.30
2023-01-03T21:03:37.520Z,24.60
2023-01-03T21:06:42.777Z,23.90
2023-01-03T21:09:44.440Z,22.03
2023-01-03T21:12:46.047Z,25.00
2023-01-03T21:15:48.800Z,28.70
2023-01-03T21:18:50.615Z,31.67
2023-01-03T21:21:53.113Z,31.47
2023-01-03T21:24:57.687Z,26.70
2023-01-03T21:28:00.112Z,26.37
2023-01-03T21:31:05.321Z,26.80
2023-01-03T21:34:07.650Z,26.90
2023-01-03T21:37:09.867Z,25.40
2023-01-03T21:40:16.441Z,23.73
2023-01-03T21:43:17.983Z,23.90
2023-01-03T21:46:20.534Z,23.53
2023-01-03T21:49:22.256Z,62.73
2023-01-03T21:52:23.860Z,24.87
2023-01-03T21:55:25.828Z,20.93
2023-01-03T21:58:27.622Z,21.70
2023-01-03T22:01:49.543Z,21.20
2023-01-03T22:04:51.335Z,20.87
2023-01-03T22:07:53.135Z,23.17
2023-01-03T22:10:54.766Z,12.03
2023-01-03T22:13:58.006Z,11.10
2023-01-03T22:16:59.630Z,12.10
2023-01-03T22:20:01.266Z,13.17
2023-01-03T22:23:02.956Z,12.37
2023-01-03T22:26:10.619Z,14.77
2023-01-03T22:29:12.603Z,18.33
2023-01-03T22:32:14.406Z,16.50
2023-01-03T22:35:16.971Z,14.73
2023-01-03T22:38:18.608Z,17.57
2023-01-03T22:41:20.252Z,17.30
2023-01-03T22:44:21.867Z,17.63
2023-01-03T22:47:24.140Z,17.63
2023-01-03T22:50:27.132Z,16.13
2023-01-03T22:53:28.718Z,18.17
2023-01-03T22:56:30.361Z,19.43
2023-01-03T22:59:32.141Z,18.80
2023-01-03T23:02:40.845Z,16.03
2023-01-03T23:05:43.314Z,14.30
2023-01-03T23:08:45.557Z,16.47
2023-01-03T23:12:05.831Z,15.03
2023-01-03T23:15:07.646Z,16.40
2023-01-03T23:18:09.343Z,19.63
2023-01-03T23:21:10.941Z,16.17
2023-01-03T23:24:23.182Z,15.93
2023-01-03T23:27:27.360Z,16.43
2023-01-03T23:30:29.264Z,16.23
2023-01-03T23:33:31.110Z,19.40
2023-01-03T23:36:32.828Z,18.93
2023-01-03T23:39:35.295Z,17.63
2023-01-03T23:42:36.990Z,18.63
2023-01-03T23:45:38.554Z,16.83
2023-01-03T23:48:40.212Z,17.80
2023-01-03T23:51:41.861Z,17.53
2023-01-03T23:54:43.499Z,17.00
2023-01-03T23:57:45.140Z,16.20
